Time,TemperatureF,DewpointF,PressureIn,WindDirection,WindDirectionDegrees,WindSpeedMPH,WindSpeedGustMPH,Humidity,HourlyPrecipIn,Conditions,Clouds,dailyrainin,SoftwareType,DateUTC
2013-07-17 00:00:00,67.8,54.7,30.08,NNE,22,0.0,1.8,63,0.00,,,0.00,WeatherCatV1.20B785,2013-07-17 07:00:00,
2013-07-17 00:05:00,67.6,54.5,30.09,ENE,67,0.0,0.0,63,0.00,,,0.00,WeatherCatV1.20B785,2013-07-17 07:05:00,
2013-07-17 00:11:00,67.3,54.6,30.09,NNE,22,0.0,0.0,64,0.00,,,0.00,WeatherCatV1.20B785,2013-07-17 07:11:00,
2013-07-17 00:16:00,66.9,54.3,30.09,NNW,337,1.6,1.6,64,0.00,,,0.00,WeatherCatV1.20B785,2013-07-17 07:16:00,
2013-07-17 00:21:00,66.7,54.7,30.09,NNE,22,0.0,0.0,65,0.00,,,0.00,WeatherCatV1.20B785,2013-07-17 07:21:00,
2013-07-17 00:26:00,66.7,54.5,30.09,North,0,0.0,0.9,65,0.00,,,0.00,WeatherCatV1.20B785,2013-07-17 07:26:00,
2013-07-17 00:31:00,66.6,54.8,30.10,NNE,22,0.0,0.0,66,0.00,,,0.00,WeatherCatV1.20B785,2013-07-17 07:31:00,
2013-07-17 00:37:00,66.4,54.6,30.10,NNW,337,2.2,2.2,66,0.00,,,0.00,WeatherCatV1.20B785,2013-07-17 07:37:00,
2013-07-17 00:42:00,66.0,54.3,30.11,NNW,337,0.0,0.0,66,0.00,,,0.00,WeatherCatV1.20B785,2013-07-17 07:42:00,
2013-07-17 00:47:00,66.0,54.3,30.11,NNW,337,0.0,0.0,66,0.00,,,0.00,WeatherCatV1.20B785,2013-07-17 07:47:00,
2013-07-17 00:52:00,65.8,54.5,30.12,North,0,1.3,1.3,67,0.00,,,0.00,WeatherCatV1.20B785,2013-07-17 07:52:00,
2013-07-17 00:57:00,65.8,54.5,30.12,North,0,0.0,0.0,67,0.00,,,0.00,WeatherCatV1.20B785,2013-07-17 07:57:00,
2013-07-17 01:02:00,65.5,54.2,30.12,North,0,0.0,0.0,67,0.00,,,0.00,WeatherCatV1.20B785,2013-07-17 08:02:00,
2013-07-17 01:07:00,65.3,54.0,30.13,NNE,22,0.0,0.0,67,0.00,,,0.00,WeatherCatV1.20B785,2013-07-17 08:07:00,
2013-07-17 01:12:00,65.1,53.9,30.13,North,0,0.0,0.0,67,0.00,,,0.00,WeatherCatV1.20B785,2013-07-17 08:12:00,
2013-07-17 01:17:00,64.9,54.1,30.13,North,0,0.0,0.0,68,0.00,,,0.00,WeatherCatV1.20B785,2013-07-17 08:17:00,
2013-07-17 01:22:00,64.8,54.0,30.13,NNW,337,0.0,1.3,68,0.00,,,0.00,WeatherCatV1.20B785,2013-07-17 08:22:00,
2013-07-17 01:27:00,64.6,53.8,30.13,NNW,337,0.0,0.0,68,0.00,,,0.00,WeatherCatV1.20B785,2013-07-17 08:27:00,
2013-07-17 01:32:00,64.2,53.9,30.13,North,0,1.6,1.6,69,0.00,,,0.00,WeatherCatV1.20B785,2013-07-17 08:32:00,
2013-07-17 01:37:00,64.0,53.7,30.13,North,0,0.0,1.3,69,0.00,,,0.00,WeatherCatV1.20B785,2013-07-17 08:37:00,
2013-07-17 01:42:00,63.7,53.3,30.14,NNE,22,0.9,0.9,69,0.00,,,0.00,WeatherCatV1.20B785,2013-07-17 08:42:00,
2013-07-17 01:48:00,63.5,53.6,30.14,North,0,1.3,2.9,70,0.00,,,0.00,WeatherCatV1.20B785,2013-07-17 08:48:00,
2013-07-17 01:53:00,63.3,53.4,30.14,North,0,2.9,2.9,70,0.00,,,0.00,WeatherCatV1.20B785,2013-07-17 08:53:00,
2013-07-17 01:58:00,63.3,53.4,30.14,NW,315,0.9,0.9,70,0.00,,,0.00,WeatherCatV1.20B785,2013-07-17 08:58:00,
2013-07-17 02:09:00,63.1,53.2,30.14,North,0,1.6,1.6,-999,0.00,,,0.00,WeatherCatV1.20B785,2013-07-17 09:09:00,
2013-07-17 02:14:00,62.6,53.1,30.15,NW,315,0.0,0.0,71,0.00,,,0.00,WeatherCatV1.20B785,2013-07-17 09:14:00,
2013-07-17 02:19:00,62.4,53.3,30.15,NNW,337,4.2,4.2,72,0.00,,,0.00,WeatherCatV1.20B785,2013-07-17 09:19:00,
2013-07-17 02:24:00,62.4,53.3,30.16,North,0,2.0,2.2,72,0.00,,,0.00,WeatherCatV1.20B785,2013-07-17 09:24:00,
2013-07-17 02:29:00,62.2,53.1,30.16,NNW,337,0.0,0.0,72,0.00,,,0.00,WeatherCatV1.20B785,2013-07-17 09:29:00,
2013-07-17 02:34:00,62.1,52.9,30.16,North,0,1.3,1.3,72,0.00,,,0.00,WeatherCatV1.20B785,2013-07-17 09:34:00,
2013-07-17 02:39:00,61.9,53.1,30.17,North,0,0.0,0.0,73,0.00,,,0.00,WeatherCatV1.20B785,2013-07-17 09:39:00,
2013-07-17 02:44:00,61.7,53.0,30.17,NNW,337,0.0,0.0,73,0.00,,,0.00,WeatherCatV1.20B785,2013-07-17 09:44:00,
2013-07-17 02:49:00,61.5,52.8,30.16,North,0,3.6,3.6,73,0.00,,,0.00,WeatherCatV1.20B785,2013-07-17 09:49:00,
2013-07-17 02:54:00,61.5,52.8,30.17,NNW,337,0.0,0.0,73,0.00,,,0.00,WeatherCatV1.20B785,2013-07-17 09:54:00,
2013-07-17 03:11:00,61.5,53.2,30.17,NW,315,1.8,1.8,74,0.00,,,0.00,WeatherCatV1.20B785,2013-07-17 10:11:00,
2013-07-17 03:16:00,61.2,52.8,30.17,North,0,2.0,2.0,74,0.00,,,0.00,WeatherCatV1.20B785,2013-07-17 10:16:00,
2013-07-17 03:21:00,61.0,52.7,30.18,NNW,337,0.9,0.9,74,0.00,,,0.00,WeatherCatV1.20B785,2013-07-17 10:21:00,
2013-07-17 03:26:00,61.0,53.0,30.18,North,0,2.2,2.2,75,0.00,,,0.00,WeatherCatV1.20B785,2013-07-17 10:26:00,
2013-07-17 03:31:00,61.0,53.0,30.18,North,0,0.0,0.0,75,0.00,,,0.00,WeatherCatV1.20B785,2013-07-17 10:31:00,
2013-07-17 03:36:00,61.0,53.0,30.18,North,0,0.0,0.0,75,0.00,,,0.00,WeatherCatV1.20B785,2013-07-17 10:36:00,
2013-07-17 03:41:00,61.0,53.0,30.18,North,0,1.6,1.6,75,0.00,,,0.00,WeatherCatV1.20B785,2013-07-17 10:41:00,
2013-07-17 03:46:00,61.0,53.0,30.18,North,0,2.2,2.2,75,0.00,,,0.00,WeatherCatV1.20B785,2013-07-17 10:46:00,
2013-07-17 03:51:00,61.0,53.0,30.18,NNW,337,3.1,3.1,75,0.00,,,0.00,WeatherCatV1.20B785,2013-07-17 10:51:00,
2013-07-17 03:56:00,60.8,52.9,30.19,North,0,0.0,1.6,75,0.00,,,0.00,WeatherCatV1.20B785,2013-07-17 10:56:00,
2013-07-17 04:09:00,60.8,52.9,30.18,North,0,2.0,2.0,75,0.00,,,0.00,WeatherCatV1.20B785,2013-07-17 11:09:00,
2013-07-17 04:14:00,60.6,53.1,30.19,North,0,0.0,0.0,76,0.00,,,0.00,WeatherCatV1.20B785,2013-07-17 11:14:00,
2013-07-17 04:19:00,60.6,53.1,30.19,North,0,0.0,0.0,76,0.00,,,0.00,WeatherCatV1.20B785,2013-07-17 11:19:00,
2013-07-17 04:24:00,60.6,53.1,30.19,North,0,0.0,1.6,76,0.00,,,0.00,WeatherCatV1.20B785,2013-07-17 11:24:00,
2013-07-17 04:30:00,60.6,53.1,30.20,NNW,337,0.0,0.0,76,0.00,,,0.00,WeatherCatV1.20B785,2013-07-17 11:30:00,
2013-07-17 04:35:00,60.8,53.2,30.20,North,0,1.3,1.3,76,0.00,,,0.00,WeatherCatV1.20B785,2013-07-17 11:35:00,
2013-07-17 04:40:00,60.8,53.2,30.20,South,180,0.0,0.0,76,0.00,,,0.00,WeatherCatV1.20B785,2013-07-17 11:40:00,
2013-07-17 04:45:00,61.0,53.4,30.20,NW,315,3.4,3.4,76,0.00,,,0.00,WeatherCatV1.20B785,2013-07-17 11:45:00,
2013-07-17 04:50:00,61.0,53.4,30.20,North,0,0.7,0.7,76,0.00,,,0.00,WeatherCatV1.20B785,2013-07-17 11:50:00,
2013-07-17 04:55:00,61.2,53.6,30.20,NNW,337,1.1,1.1,76,0.00,,,0.00,WeatherCatV1.20B785,2013-07-17 11:55:00,
2013-07-17 05:04:00,61.3,53.7,30.20,North,0,0.0,0.0,76,0.00,,,0.00,WeatherCatV1.20B785,2013-07-17 12:04:00,
2013-07-17 05:09:00,61.5,53.9,30.20,NNW,337,0.0,0.0,76,0.00,,,0.00,WeatherCatV1.20B785,2013-07-17 12:09:00,
2013-07-17 05:14:00,61.5,53.9,30.21,NNW,337,2.0,2.0,76,0.00,,,0.00,WeatherCatV1.20B785,2013-07-17 12:14:00,
2013-07-17 05:19:00,61.5,53.5,30.21,North,0,0.0,0.0,75,0.00,,,0.00,WeatherCatV1.20B785,2013-07-17 12:19:00,
2013-07-17 05:24:00,61.5,53.5,30.21,North,0,0.0,0.0,75,0.00,,,0.00,WeatherCatV1.20B785,2013-07-17 12:24:00,
2013-07-17 05:29:00,61.5,53.5,30.21,NNW,337,0.0,0.0,75,0.00,,,0.00,WeatherCatV1.20B785,2013-07-17 12:29:00,
2013-07-17 05:34:00,61.7,53.7,30.21,NNW,337,1.6,1.6,75,0.00,,,0.00,WeatherCatV1.20B785,2013-07-17 12:34:00,
2013-07-17 05:39:00,61.7,53.7,30.21,North,0,0.0,0.0,75,0.00,,,0.00,WeatherCatV1.20B785,2013-07-17 12:39:00,
2013-07-17 05:44:00,61.7,53.7,30.22,NNE,22,0.0,0.0,75,0.00,,,0.00,WeatherCatV1.20B785,2013-07-17 12:44:00,
2013-07-17 05:49:00,61.7,53.7,30.22,North,0,0.7,1.8,75,0.00,,,0.00,WeatherCatV1.20B785,2013-07-17 12:49:00,
2013-07-17 05:54:00,61.7,53.7,30.22,NNW,337,0.0,0.0,75,0.00,,,0.00,WeatherCatV1.20B785,2013-07-17 12:54:00,
2013-07-17 06:00:00,61.7,53.7,30.22,ENE,67,0.0,0.0,75,0.00,,,0.00,WeatherCatV1.20B785,2013-07-17 13:00:00,
2013-07-17 06:05:00,61.7,53.3,30.23,North,0,0.0,0.0,74,0.00,,,0.00,WeatherCatV1.20B785,2013-07-17 13:05:00,
2013-07-17 06:10:00,61.9,53.5,30.23,NNW,337,1.6,1.6,74,0.00,,,0.00,WeatherCatV1.20B785,2013-07-17 13:10:00,
2013-07-17 06:15:00,61.9,53.5,30.23,NNW,337,1.8,1.8,74,0.00,,,0.00,WeatherCatV1.20B785,2013-07-17 13:15:00,
2013-07-17 06:20:00,61.9,53.5,30.23,North,0,0.0,0.0,74,0.00,,,0.00,WeatherCatV1.20B785,2013-07-17 13:20:00,
2013-07-17 06:25:00,61.9,53.5,30.24,North,0,0.0,0.0,74,0.00,,,0.00,WeatherCatV1.20B785,2013-07-17 13:25:00,
2013-07-17 06:30:00,62.1,53.7,30.24,North,0,0.0,0.0,74,0.00,,,0.00,WeatherCatV1.20B785,2013-07-17 13:30:00,
2013-07-17 06:35:00,62.2,53.8,30.24,NW,315,1.3,1.3,74,0.00,,,0.00,WeatherCatV1.20B785,2013-07-17 13:35:00,
2013-07-17 06:40:00,62.2,53.8,30.24,North,0,0.0,0.0,74,0.00,,,0.00,WeatherCatV1.20B785,2013-07-17 13:40:00,
2013-07-17 06:45:00,62.2,53.8,30.24,NNE,22,0.0,2.2,74,0.00,,,0.00,WeatherCatV1.20B785,2013-07-17 13:45:00,
2013-07-17 06:50:00,62.4,54.0,30.24,NNW,337,2.7,2.7,74,0.00,,,0.00,WeatherCatV1.20B785,2013-07-17 13:50:00,
2013-07-17 06:55:00,62.4,54.0,30.25,North,0,0.0,0.0,74,0.00,,,0.00,WeatherCatV1.20B785,2013-07-17 13:55:00,
2013-07-17 07:00:00,62.4,54.0,30.25,North,0,0.0,0.0,74,0.00,,,0.00,WeatherCatV1.20B785,2013-07-17 14:00:00,
2013-07-17 07:05:00,62.6,54.1,30.25,NNW,337,1.6,1.6,74,0.00,,,0.00,WeatherCatV1.20B785,2013-07-17 14:05:00,
2013-07-17 07:10:00,62.8,54.3,30.25,North,0,0.0,0.0,74,0.00,,,0.00,WeatherCatV1.20B785,2013-07-17 14:10:00,
2013-07-17 07:15:00,62.8,54.0,30.24,NNE,22,0.0,0.0,73,0.00,,,0.00,WeatherCatV1.20B785,2013-07-17 14:15:00,
2013-07-17 07:20:00,63.0,54.1,30.24,NNE,22,0.0,0.0,73,0.00,,,0.00,WeatherCatV1.20B785,2013-07-17 14:20:00,
2013-07-17 07:25:00,63.1,54.3,30.24,NNW,337,1.6,1.6,73,0.00,,,0.00,WeatherCatV1.20B785,2013-07-17 14:25:00,
2013-07-17 07:30:00,63.1,54.3,30.24,NNE,22,0.0,0.0,73,0.00,,,0.00,WeatherCatV1.20B785,2013-07-17 14:30:00,
2013-07-17 07:35:00,63.1,54.3,30.24,ESE,112,0.0,0.0,73,0.00,,,0.00,WeatherCatV1.20B785,2013-07-17 14:35:00,
2013-07-17 07:40:00,63.1,54.3,30.24,North,0,0.0,1.1,73,0.00,,,0.00,WeatherCatV1.20B785,2013-07-17 14:40:00,
2013-07-17 07:45:00,63.3,54.5,30.24,North,0,0.0,0.0,73,0.00,,,0.00,WeatherCatV1.20B785,2013-07-17 14:45:00,
2013-07-17 07:50:00,63.3,54.5,30.25,North,0,0.0,0.0,73,0.00,,,0.00,WeatherCatV1.20B785,2013-07-17 14:50:00,
2013-07-17 07:55:00,63.5,54.3,30.25,NNW,337,0.0,0.0,72,0.00,,,0.00,WeatherCatV1.20B785,2013-07-17 14:55:00,
2013-07-17 08:00:00,63.5,54.3,30.25,SSE,157,0.0,0.0,72,0.00,,,0.00,WeatherCatV1.20B785,2013-07-17 15:00:00,
2013-07-17 08:05:00,63.5,54.3,30.25,NNE,22,0.0,0.0,72,0.00,,,0.00,WeatherCatV1.20B785,2013-07-17 15:05:00,
2013-07-17 08:10:00,63.5,54.3,30.25,NNE,22,0.0,1.6,72,0.00,,,0.00,WeatherCatV1.20B785,2013-07-17 15:10:00,
2013-07-17 08:15:00,63.5,54.3,30.26,North,0,0.0,0.0,72,0.00,,,0.00,WeatherCatV1.20B785,2013-07-17 15:15:00,
2013-07-17 08:20:00,63.7,54.5,30.25,NNW,337,0.0,0.0,72,0.00,,,0.00,WeatherCatV1.20B785,2013-07-17 15:20:00,
2013-07-17 08:25:00,63.9,54.9,30.26,NNW,337,0.0,0.9,72,0.00,,,0.00,WeatherCatV1.20B785,2013-07-17 15:25:00,
2013-07-17 08:30:00,64.0,54.5,30.25,North,0,0.0,0.0,71,0.00,,,0.00,WeatherCatV1.20B785,2013-07-17 15:30:00,
2013-07-17 08:35:00,64.0,54.5,30.26,North,0,0.0,0.0,71,0.00,,,0.00,WeatherCatV1.20B785,2013-07-17 15:35:00,
2013-07-17 08:40:00,64.0,54.9,30.26,NNW,337,0.0,0.0,72,0.00,,,0.00,WeatherCatV1.20B785,2013-07-17 15:40:00,
2013-07-17 08:45:00,64.2,54.7,30.26,NNE,22,0.0,0.0,71,0.00,,,0.00,WeatherCatV1.20B785,2013-07-17 15:45:00,
2013-07-17 08:50:00,64.2,54.7,30.26,NNE,22,0.0,0.0,71,0.00,,,0.00,WeatherCatV1.20B785,2013-07-17 15:50:00,
2013-07-17 08:55:00,64.6,55.0,30.26,North,0,0.0,0.0,71,0.00,,,0.00,WeatherCatV1.20B785,2013-07-17 15:55:00,
2013-07-17 09:00:00,64.8,54.8,30.26,NNW,337,0.0,0.0,70,0.00,,,0.00,WeatherCatV1.20B785,2013-07-17 16:00:00,
2013-07-17 09:05:00,64.9,55.3,30.26,WNW,292,0.0,0.0,71,0.00,,,0.00,WeatherCatV1.20B785,2013-07-17 16:05:00,
2013-07-17 09:10:00,65.1,55.5,30.26,NNW,337,0.0,0.0,71,0.00,,,0.00,WeatherCatV1.20B785,2013-07-17 16:10:00,
2013-07-17 09:15:00,65.5,55.8,30.26,SW,225,0.0,0.0,71,0.00,,,0.00,WeatherCatV1.20B785,2013-07-17 16:15:00,
2013-07-17 09:20:00,65.7,55.6,30.26,East,90,0.0,0.0,70,0.00,,,0.00,WeatherCatV1.20B785,2013-07-17 16:20:00,
2013-07-17 09:26:00,66.0,56.0,30.26,NW,315,0.0,0.0,70,0.00,,,0.00,WeatherCatV1.20B785,2013-07-17 16:26:00,
2013-07-17 09:31:00,66.0,56.0,30.26,ENE,67,0.0,0.0,70,0.00,,,0.00,WeatherCatV1.20B785,2013-07-17 16:31:00,
2013-07-17 09:36:00,66.0,55.5,30.26,North,0,0.0,0.0,69,0.00,,,0.00,WeatherCatV1.20B785,2013-07-17 16:36:00,
2013-07-17 09:41:00,66.0,55.5,30.26,NW,315,0.0,0.0,69,0.00,,,0.00,WeatherCatV1.20B785,2013-07-17 16:41:00,
2013-07-17 09:46:00,66.0,55.5,30.26,North,0,0.0,0.0,69,0.00,,,0.00,WeatherCatV1.20B785,2013-07-17 16:46:00,
2013-07-17 09:51:00,66.0,55.5,30.27,NNW,337,0.0,0.0,69,0.00,,,0.00,WeatherCatV1.20B785,2013-07-17 16:51:00,
2013-07-17 09:56:00,66.2,55.7,30.26,ENE,67,0.0,0.0,69,0.00,,,0.00,WeatherCatV1.20B785,2013-07-17 16:56:00,
2013-07-17 10:01:00,66.6,56.0,30.27,NNW,337,0.0,0.0,69,0.00,,,0.00,WeatherCatV1.20B785,2013-07-17 17:01:00,
2013-07-17 10:06:00,66.6,55.6,30.27,NE,45,0.0,0.0,68,0.00,,,0.00,WeatherCatV1.20B785,2013-07-17 17:06:00,
2013-07-17 10:11:00,66.7,55.8,30.27,NNW,337,0.0,0.0,68,0.00,,,0.00,WeatherCatV1.20B785,2013-07-17 17:11:00,
2013-07-17 10:16:00,66.9,56.0,30.27,NW,315,0.0,0.0,68,0.00,,,0.00,WeatherCatV1.20B785,2013-07-17 17:16:00,
2013-07-17 10:21:00,67.3,56.3,30.27,NNE,22,0.0,0.0,68,0.00,,,0.00,WeatherCatV1.20B785,2013-07-17 17:21:00,
2013-07-17 10:26:00,67.6,56.3,30.27,NNE,22,0.0,0.0,67,0.00,,,0.00,WeatherCatV1.20B785,2013-07-17 17:26:00,
2013-07-17 10:31:00,67.6,56.3,30.27,NNW,337,0.0,0.0,67,0.00,,,0.00,WeatherCatV1.20B785,2013-07-17 17:31:00,
2013-07-17 10:36:00,67.8,56.4,30.28,North,0,0.0,0.0,67,0.00,,,0.00,WeatherCatV1.20B785,2013-07-17 17:36:00,
2013-07-17 10:41:00,68.2,56.8,30.28,North,0,0.0,0.0,67,0.00,,,0.00,WeatherCatV1.20B785,2013-07-17 17:41:00,
2013-07-17 10:46:00,68.5,57.1,30.28,North,0,0.0,0.0,67,0.00,,,0.00,WeatherCatV1.20B785,2013-07-17 17:46:00,
2013-07-17 10:51:00,68.9,57.5,30.28,NNW,337,0.0,0.0,67,0.00,,,0.00,WeatherCatV1.20B785,2013-07-17 17:51:00,
2013-07-17 10:56:00,69.4,57.5,30.27,SE,135,0.0,0.0,66,0.00,,,0.00,WeatherCatV1.20B785,2013-07-17 17:56:00,
2013-07-17 11:01:00,69.3,57.0,30.28,NNW,337,1.6,1.6,65,0.00,,,0.00,WeatherCatV1.20B785,2013-07-17 18:01:00,
2013-07-17 11:07:00,69.4,57.1,30.28,South,180,0.0,0.0,65,0.00,,,0.00,WeatherCatV1.20B785,2013-07-17 18:07:00,
2013-07-17 11:12:00,69.6,57.3,30.28,NE,45,0.0,0.0,65,0.00,,,0.00,WeatherCatV1.20B785,2013-07-17 18:12:00,
2013-07-17 11:17:00,69.6,56.9,30.28,North,0,0.0,0.0,64,0.00,,,0.00,WeatherCatV1.20B785,2013-07-17 18:17:00,
2013-07-17 11:22:00,70.2,57.4,30.28,North,0,0.0,0.0,64,0.00,,,0.00,WeatherCatV1.20B785,2013-07-17 18:22:00,
2013-07-17 11:27:00,70.3,57.6,30.28,North,0,0.0,0.0,64,0.00,,,0.00,WeatherCatV1.20B785,2013-07-17 18:27:00,
2013-07-17 11:32:00,70.7,57.5,30.28,North,0,0.0,0.0,63,0.00,,,0.00,WeatherCatV1.20B785,2013-07-17 18:32:00,
2013-07-17 11:37:00,70.9,57.6,30.28,North,0,0.0,0.0,63,0.00,,,0.00,WeatherCatV1.20B785,2013-07-17 18:37:00,
2013-07-17 11:42:00,71.1,57.8,30.28,North,0,0.0,0.0,63,0.00,,,0.00,WeatherCatV1.20B785,2013-07-17 18:42:00,
2013-07-17 11:47:00,71.4,58.1,30.28,NNW,337,0.0,1.1,63,0.00,,,0.00,WeatherCatV1.20B785,2013-07-17 18:47:00,
2013-07-17 11:52:00,72.0,58.2,30.29,NNW,337,0.0,0.0,62,0.00,,,0.00,WeatherCatV1.20B785,2013-07-17 18:52:00,
2013-07-17 11:57:00,72.3,58.5,30.29,NNW,337,0.0,0.0,62,0.00,,,0.00,WeatherCatV1.20B785,2013-07-17 18:57:00,
2013-07-17 12:02:00,72.7,58.4,30.28,North,0,0.0,0.0,61,0.00,,,0.00,WeatherCatV1.20B785,2013-07-17 19:02:00,
2013-07-17 12:07:00,72.7,58.0,30.29,NNW,337,0.0,0.0,60,0.00,,,0.00,WeatherCatV1.20B785,2013-07-17 19:07:00,
2013-07-17 12:12:00,73.0,58.3,30.28,North,0,0.0,0.0,60,0.00,,,0.00,WeatherCatV1.20B785,2013-07-17 19:12:00,
2013-07-17 12:17:00,73.2,58.8,30.28,NNW,337,0.0,0.0,60,0.00,,,0.00,WeatherCatV1.20B785,2013-07-17 19:17:00,
2013-07-17 12:22:00,74.1,59.4,30.28,North,0,2.0,2.0,60,0.00,,,0.00,WeatherCatV1.20B785,2013-07-17 19:22:00,
2013-07-17 12:27:00,74.8,59.6,30.28,ESE,112,0.0,0.0,59,0.00,,,0.00,WeatherCatV1.20B785,2013-07-17 19:27:00,
2013-07-17 12:32:00,75.4,59.1,30.28,North,0,1.3,1.3,58,0.00,,,0.00,WeatherCatV1.20B785,2013-07-17 19:32:00,
2013-07-17 12:37:00,76.1,59.7,30.28,NNW,337,0.0,0.0,57,0.00,,,0.00,WeatherCatV1.20B785,2013-07-17 19:37:00,
2013-07-17 12:41:00,77.5,60.5,30.28,NNW,337,0.0,0.0,56,0.00,,,0.00,WeatherCatV1.20B785,2013-07-17 19:41:00,
2013-07-17 12:46:00,78.4,60.7,30.28,NNW,337,0.0,1.3,54,0.00,,,0.00,WeatherCatV1.20B785,2013-07-17 19:46:00,
2013-07-17 12:51:00,78.6,59.5,30.28,SSE,157,0.0,1.3,52,0.00,,,0.00,WeatherCatV1.20B785,2013-07-17 19:51:00,
2013-07-17 12:56:00,77.7,58.7,30.28,NNW,337,0.0,0.0,52,0.00,,,0.00,WeatherCatV1.20B785,2013-07-17 19:56:00,
2013-07-17 13:01:00,77.0,59.2,30.28,SE,135,0.0,0.0,54,0.00,,,0.00,WeatherCatV1.20B785,2013-07-17 20:01:00,
2013-07-17 13:06:00,77.2,59.2,30.28,SE,135,0.0,0.0,54,0.00,,,0.00,WeatherCatV1.20B785,2013-07-17 20:06:00,
2013-07-17 13:11:00,76.6,57.7,30.28,SSE,157,2.0,2.0,52,0.00,,,0.00,WeatherCatV1.20B785,2013-07-17 20:11:00,
2013-07-17 13:16:00,75.7,57.6,30.28,NNE,22,0.0,0.0,54,0.00,,,0.00,WeatherCatV1.20B785,2013-07-17 20:16:00,
2013-07-17 13:21:00,75.4,58.1,30.28,South,180,0.0,0.0,55,0.00,,,0.00,WeatherCatV1.20B785,2013-07-17 20:21:00,
2013-07-17 13:27:00,75.4,58.1,30.27,NW,315,0.0,0.0,55,0.00,,,0.00,WeatherCatV1.20B785,2013-07-17 20:27:00,
2013-07-17 13:32:00,75.4,57.6,30.28,South,180,0.0,0.0,54,0.00,,,0.00,WeatherCatV1.20B785,2013-07-17 20:32:00,
2013-07-17 13:37:00,75.0,57.7,30.27,NNW,337,0.0,0.0,55,0.00,,,0.00,WeatherCatV1.20B785,2013-07-17 20:37:00,
2013-07-17 13:42:00,75.0,57.7,30.27,SSE,157,2.7,2.7,55,0.00,,,0.00,WeatherCatV1.20B785,2013-07-17 20:42:00,
2013-07-17 13:47:00,73.6,55.8,30.28,SSE,157,0.0,2.5,54,0.00,,,0.00,WeatherCatV1.20B785,2013-07-17 20:47:00,
2013-07-17 13:52:00,73.2,56.0,30.27,SW,225,0.0,0.0,55,0.00,,,0.00,WeatherCatV1.20B785,2013-07-17 20:52:00,
2013-07-17 13:57:00,73.2,56.0,30.27,North,0,0.0,0.0,55,0.00,,,0.00,WeatherCatV1.20B785,2013-07-17 20:57:00,
2013-07-17 14:02:00,73.4,56.6,30.27,SSW,202,2.2,2.2,56,0.00,,,0.00,WeatherCatV1.20B785,2013-07-17 21:02:00,
2013-07-17 14:07:00,73.6,56.8,30.27,South,180,0.0,0.0,56,0.00,,,0.00,WeatherCatV1.20B785,2013-07-17 21:07:00,
2013-07-17 14:12:00,73.6,56.8,30.27,SSW,202,2.2,2.2,56,0.00,,,0.00,WeatherCatV1.20B785,2013-07-17 21:12:00,
2013-07-17 14:17:00,73.0,55.8,30.27,SSE,157,0.0,5.1,55,0.00,,,0.00,WeatherCatV1.20B785,2013-07-17 21:17:00,
2013-07-17 14:22:00,73.0,56.8,30.27,SSE,157,0.0,0.0,57,0.00,,,0.00,WeatherCatV1.20B785,2013-07-17 21:22:00,
2013-07-17 14:27:00,73.2,56.6,30.27,North,0,0.0,0.0,57,0.00,,,0.00,WeatherCatV1.20B785,2013-07-17 21:27:00,
2013-07-17 14:32:00,73.4,56.6,30.27,South,180,2.0,3.1,56,0.00,,,0.00,WeatherCatV1.20B785,2013-07-17 21:32:00,
2013-07-17 14:37:00,73.2,56.5,30.26,SSE,157,0.9,0.9,56,0.00,,,0.00,WeatherCatV1.20B785,2013-07-17 21:37:00,
2013-07-17 14:42:00,73.2,56.5,30.26,SE,135,1.6,1.6,56,0.00,,,0.00,WeatherCatV1.20B785,2013-07-17 21:42:00,
2013-07-17 14:47:00,73.2,56.5,30.26,SW,225,0.0,0.0,56,0.00,,,0.00,WeatherCatV1.20B785,2013-07-17 21:47:00,
2013-07-17 14:52:00,73.2,56.5,30.26,SSW,202,0.0,0.0,56,0.00,,,0.00,WeatherCatV1.20B785,2013-07-17 21:52:00,
2013-07-17 14:57:00,73.4,56.1,30.26,ESE,112,0.0,2.9,55,0.00,,,0.00,WeatherCatV1.20B785,2013-07-17 21:57:00,
2013-07-17 15:02:00,73.0,56.3,30.26,South,180,2.2,2.2,56,0.00,,,0.00,WeatherCatV1.20B785,2013-07-17 22:02:00,
2013-07-17 15:07:00,73.0,56.3,30.26,North,0,0.0,0.0,56,0.00,,,0.00,WeatherCatV1.20B785,2013-07-17 22:07:00,
2013-07-17 15:12:00,73.0,56.3,30.26,East,90,1.3,1.3,56,0.00,,,0.00,WeatherCatV1.20B785,2013-07-17 22:12:00,
2013-07-17 15:17:00,73.0,56.3,30.25,SSE,157,2.0,2.0,56,0.00,,,0.00,WeatherCatV1.20B785,2013-07-17 22:17:00,
2013-07-17 15:21:00,73.0,56.3,30.26,SSE,157,2.0,2.0,56,0.00,,,0.00,WeatherCatV1.20B785,2013-07-17 22:21:00,
2013-07-17 15:26:00,72.7,56.5,30.25,SE,135,1.6,1.6,57,0.00,,,0.00,WeatherCatV1.20B785,2013-07-17 22:26:00,
2013-07-17 15:31:00,72.7,56.5,30.25,SE,135,3.4,3.4,57,0.00,,,0.00,WeatherCatV1.20B785,2013-07-17 22:31:00,
2013-07-17 15:36:00,72.7,56.0,30.26,SSE,157,4.0,5.1,56,0.00,,,0.00,WeatherCatV1.20B785,2013-07-17 22:36:00,
2013-07-17 15:41:00,72.5,56.3,30.25,South,180,3.6,3.6,57,0.00,,,0.00,WeatherCatV1.20B785,2013-07-17 22:41:00,
2013-07-17 15:47:00,72.3,56.2,30.26,SE,135,2.0,3.6,57,0.00,,,0.00,WeatherCatV1.20B785,2013-07-17 22:47:00,
2013-07-17 15:52:00,72.3,56.2,30.25,SSE,157,3.8,3.8,57,0.00,,,0.00,WeatherCatV1.20B785,2013-07-17 22:52:00,
2013-07-17 15:57:00,72.3,56.2,30.25,SE,135,0.0,0.0,57,0.00,,,0.00,WeatherCatV1.20B785,2013-07-17 22:57:00,
2013-07-17 16:02:00,72.7,56.5,30.25,SE,135,0.0,2.5,57,0.00,,,0.00,WeatherCatV1.20B785,2013-07-17 23:02:00,
2013-07-17 16:07:00,73.0,56.3,30.25,SE,135,3.4,3.4,56,0.00,,,0.00,WeatherCatV1.20B785,2013-07-17 23:07:00,
2013-07-17 16:12:00,73.2,56.3,30.26,NNE,22,0.0,2.9,56,0.00,,,0.00,WeatherCatV1.20B785,2013-07-17 23:12:00,
2013-07-17 16:18:00,73.2,56.5,30.25,SSW,202,2.0,2.0,56,0.00,,,0.00,WeatherCatV1.20B785,2013-07-17 23:18:00,
2013-07-17 16:23:00,73.2,56.5,30.25,SSE,157,3.6,3.6,56,0.00,,,0.00,WeatherCatV1.20B785,2013-07-17 23:23:00,
2013-07-17 16:28:00,73.2,56.5,30.25,South,180,0.0,0.0,56,0.00,,,0.00,WeatherCatV1.20B785,2013-07-17 23:28:00,
2013-07-17 16:33:00,73.2,56.5,30.25,South,180,3.1,3.1,56,0.00,,,0.00,WeatherCatV1.20B785,2013-07-17 23:33:00,
2013-07-17 16:38:00,73.2,56.0,30.25,SSE,157,3.6,3.6,55,0.00,,,0.00,WeatherCatV1.20B785,2013-07-17 23:38:00,
2013-07-17 16:43:00,73.2,56.5,30.25,SSE,157,0.0,0.0,56,0.00,,,0.00,WeatherCatV1.20B785,2013-07-17 23:43:00,
2013-07-17 16:48:00,73.6,56.8,30.24,South,180,5.1,5.1,56,0.00,,,0.00,WeatherCatV1.20B785,2013-07-17 23:48:00,
2013-07-17 16:53:00,73.8,57.0,30.24,ENE,67,0.0,0.9,56,0.00,,,0.00,WeatherCatV1.20B785,2013-07-17 23:53:00,
2013-07-17 16:58:00,73.8,57.0,30.24,South,180,2.5,2.5,56,0.00,,,0.00,WeatherCatV1.20B785,2013-07-17 23:58:00,
2013-07-17 17:03:00,73.9,57.7,30.24,South,180,2.0,2.0,57,0.00,,,0.00,WeatherCatV1.20B785,2013-07-18 00:03:00,
2013-07-17 17:08:00,73.9,57.7,30.24,South,180,4.0,4.0,57,0.00,,,0.00,WeatherCatV1.20B785,2013-07-18 00:08:00,
2013-07-17 17:13:00,73.9,57.7,30.24,ESE,112,3.4,3.4,57,0.00,,,0.00,WeatherCatV1.20B785,2013-07-18 00:13:00,
2013-07-17 17:18:00,73.8,58.0,30.24,SE,135,1.8,1.8,58,0.00,,,0.00,WeatherCatV1.20B785,2013-07-18 00:18:00,
2013-07-17 17:23:00,73.9,58.2,30.24,ESE,112,2.7,2.7,58,0.00,,,0.00,WeatherCatV1.20B785,2013-07-18 00:23:00,
2013-07-17 17:28:00,73.9,58.7,30.24,SE,135,2.5,2.5,59,0.00,,,0.00,WeatherCatV1.20B785,2013-07-18 00:28:00,
2013-07-17 17:33:00,74.1,58.3,30.24,SSE,157,2.0,2.0,58,0.00,,,0.00,WeatherCatV1.20B785,2013-07-18 00:33:00,
2013-07-17 17:38:00,73.9,58.2,30.23,SSW,202,3.1,3.1,58,0.00,,,0.00,WeatherCatV1.20B785,2013-07-18 00:38:00,
2013-07-17 17:43:00,73.9,58.7,30.24,South,180,3.6,3.6,59,0.00,,,0.00,WeatherCatV1.20B785,2013-07-18 00:43:00,
2013-07-17 17:48:00,74.1,58.3,30.23,South,180,0.0,1.6,58,0.00,,,0.00,WeatherCatV1.20B785,2013-07-18 00:48:00,
2013-07-17 17:53:00,74.3,58.5,30.23,SSE,157,2.9,2.9,58,0.00,,,0.00,WeatherCatV1.20B785,2013-07-18 00:53:00,
2013-07-17 17:58:00,74.5,58.7,30.23,South,180,2.2,2.2,58,0.00,,,0.00,WeatherCatV1.20B785,2013-07-18 00:58:00,
2013-07-17 18:04:00,74.5,58.7,30.23,South,180,4.5,4.5,58,0.00,,,0.00,WeatherCatV1.20B785,2013-07-18 01:04:00,
2013-07-17 18:09:00,74.5,58.7,30.23,SSE,157,3.4,3.4,58,0.00,,,0.00,WeatherCatV1.20B785,2013-07-18 01:09:00,
2013-07-17 18:14:00,74.3,58.5,30.23,SSW,202,0.0,0.0,58,0.00,,,0.00,WeatherCatV1.20B785,2013-07-18 01:14:00,
2013-07-17 18:19:00,74.5,58.7,30.23,SSE,157,5.6,5.6,58,0.00,,,0.00,WeatherCatV1.20B785,2013-07-18 01:19:00,
2013-07-17 18:24:00,74.5,58.7,30.23,South,180,4.5,4.5,58,0.00,,,0.00,WeatherCatV1.20B785,2013-07-18 01:24:00,
2013-07-17 18:29:00,74.5,58.7,30.23,SSW,202,1.8,1.8,58,0.00,,,0.00,WeatherCatV1.20B785,2013-07-18 01:29:00,
2013-07-17 18:34:00,74.8,58.6,30.23,South,180,6.7,6.7,57,0.00,,,0.00,WeatherCatV1.20B785,2013-07-18 01:34:00,
2013-07-17 18:39:00,74.8,58.6,30.23,SE,135,0.0,0.0,57,0.00,,,0.00,WeatherCatV1.20B785,2013-07-18 01:39:00,
2013-07-17 18:44:00,75.0,58.6,30.22,South,180,2.5,2.5,57,0.00,,,0.00,WeatherCatV1.20B785,2013-07-18 01:44:00,
2013-07-17 18:49:00,75.0,58.8,30.23,South,180,3.1,4.2,57,0.00,,,0.00,WeatherCatV1.20B785,2013-07-18 01:49:00,
2013-07-17 18:54:00,74.8,58.6,30.22,South,180,2.5,2.5,57,0.00,,,0.00,WeatherCatV1.20B785,2013-07-18 01:54:00,
2013-07-17 18:59:00,74.8,58.6,30.23,SE,135,2.0,3.1,57,0.00,,,0.00,WeatherCatV1.20B785,2013-07-18 01:59:00,
2013-07-17 19:04:00,75.0,58.2,30.23,SSE,157,3.6,4.0,56,0.00,,,0.00,WeatherCatV1.20B785,2013-07-18 02:04:00,
2013-07-17 19:09:00,74.8,58.6,30.23,South,180,4.2,4.2,57,0.00,,,0.00,WeatherCatV1.20B785,2013-07-18 02:09:00,
2013-07-17 19:14:00,75.0,58.8,30.23,SSW,202,3.4,3.4,57,0.00,,,0.00,WeatherCatV1.20B785,2013-07-18 02:14:00,
2013-07-17 19:19:00,76.3,59.4,30.23,SE,135,2.9,3.6,56,0.00,,,0.00,WeatherCatV1.20B785,2013-07-18 02:19:00,
2013-07-17 19:24:00,77.5,60.0,30.23,SE,135,4.0,4.0,55,0.00,,,0.00,WeatherCatV1.20B785,2013-07-18 02:24:00,
2013-07-17 19:29:00,80.2,59.9,30.23,SSW,202,3.6,7.4,52,0.00,,,0.00,WeatherCatV1.20B785,2013-07-18 02:29:00,
2013-07-17 19:34:00,80.4,59.5,30.23,SSE,157,2.7,3.8,49,0.00,,,0.00,WeatherCatV1.20B785,2013-07-18 02:34:00,
2013-07-17 19:39:00,78.6,58.5,30.23,South,180,2.0,2.0,50,0.00,,,0.00,WeatherCatV1.20B785,2013-07-18 02:39:00,
2013-07-17 19:44:00,76.8,57.4,30.23,SSE,157,7.8,7.8,51,0.00,,,0.00,WeatherCatV1.20B785,2013-07-18 02:44:00,
2013-07-17 19:49:00,75.0,56.2,30.23,SSE,157,3.4,3.4,52,0.00,,,0.00,WeatherCatV1.20B785,2013-07-18 02:49:00,
2013-07-17 19:54:00,74.3,56.5,30.23,South,180,1.8,1.8,54,0.00,,,0.00,WeatherCatV1.20B785,2013-07-18 02:54:00,
2013-07-17 19:59:00,73.6,57.0,30.23,SSE,157,6.9,6.9,56,0.00,,,0.00,WeatherCatV1.20B785,2013-07-18 02:59:00,
2013-07-17 20:04:00,73.2,57.0,30.23,South,180,2.9,2.9,57,0.00,,,0.00,WeatherCatV1.20B785,2013-07-18 03:04:00,
2013-07-17 20:09:00,73.0,57.3,30.23,SE,135,2.9,2.9,58,0.00,,,0.00,WeatherCatV1.20B785,2013-07-18 03:09:00,
2013-07-17 20:14:00,72.5,57.3,30.23,SSE,157,1.6,2.0,59,0.00,,,0.00,WeatherCatV1.20B785,2013-07-18 03:14:00,
2013-07-17 20:19:00,72.3,57.7,30.23,SSE,157,4.0,5.6,60,0.00,,,0.00,WeatherCatV1.20B785,2013-07-18 03:19:00,
2013-07-17 20:24:00,72.0,57.8,30.24,South,180,3.1,3.1,61,0.00,,,0.00,WeatherCatV1.20B785,2013-07-18 03:24:00,
2013-07-17 20:29:00,71.8,57.6,30.23,SE,135,2.5,2.5,61,0.00,,,0.00,WeatherCatV1.20B785,2013-07-18 03:29:00,
2013-07-17 20:34:00,71.2,57.5,30.24,SSE,157,3.4,3.4,62,0.00,,,0.00,WeatherCatV1.20B785,2013-07-18 03:34:00,
2013-07-17 20:39:00,71.2,57.5,30.24,SE,135,1.1,1.1,62,0.00,,,0.00,WeatherCatV1.20B785,2013-07-18 03:39:00,
2013-07-17 20:44:00,70.9,57.1,30.24,SSE,157,5.4,5.4,62,0.00,,,0.00,WeatherCatV1.20B785,2013-07-18 03:44:00,
2013-07-17 20:49:00,70.3,57.1,30.24,SE,135,1.6,2.0,63,0.00,,,0.00,WeatherCatV1.20B785,2013-07-18 03:49:00,
2013-07-17 20:54:00,70.2,57.0,30.24,South,180,1.8,1.8,63,0.00,,,0.00,WeatherCatV1.20B785,2013-07-18 03:54:00,
2013-07-17 20:59:00,70.0,57.2,30.24,SW,225,3.8,3.8,64,0.00,,,0.00,WeatherCatV1.20B785,2013-07-18 03:59:00,
2013-07-17 21:01:00,69.6,56.9,30.24,South,180,3.1,3.1,64,0.00,,,0.00,WeatherCatV1.20B785,2013-07-18 04:01:00,
2013-07-17 21:03:00,69.6,56.9,30.24,SSE,157,3.1,3.1,64,0.00,,,0.00,WeatherCatV1.20B785,2013-07-18 04:03:00,
2013-07-17 21:07:00,69.4,56.7,30.24,SSE,157,2.0,2.0,64,0.00,,,0.00,WeatherCatV1.20B785,2013-07-18 04:07:00,
2013-07-17 21:12:00,69.1,56.8,30.24,SSE,157,2.5,2.5,65,0.00,,,0.00,WeatherCatV1.20B785,2013-07-18 04:12:00,
2013-07-17 21:17:00,68.7,56.4,30.24,NNW,337,0.0,0.0,65,0.00,,,0.00,WeatherCatV1.20B785,2013-07-18 04:17:00,
2013-07-17 21:22:00,68.7,56.4,30.24,South,180,2.5,2.5,65,0.00,,,0.00,WeatherCatV1.20B785,2013-07-18 04:22:00,
2013-07-17 21:27:00,68.4,56.1,30.25,SE,135,0.0,0.0,65,0.00,,,0.00,WeatherCatV1.20B785,2013-07-18 04:27:00,
2013-07-17 21:32:00,68.2,56.3,30.25,SSE,157,1.6,1.6,66,0.00,,,0.00,WeatherCatV1.20B785,2013-07-18 04:32:00,
2013-07-17 21:37:00,67.8,56.0,30.25,SSE,157,0.0,0.0,66,0.00,,,0.00,WeatherCatV1.20B785,2013-07-18 04:37:00,
2013-07-17 21:42:00,67.6,56.3,30.25,SSE,157,1.8,1.8,67,0.00,,,0.00,WeatherCatV1.20B785,2013-07-18 04:42:00,
2013-07-17 21:47:00,67.6,56.3,30.25,South,180,2.2,2.2,67,0.00,,,0.00,WeatherCatV1.20B785,2013-07-18 04:47:00,
2013-07-17 21:53:00,67.5,56.5,30.26,South,180,2.7,2.7,68,0.00,,,0.00,WeatherCatV1.20B785,2013-07-18 04:53:00,
2013-07-17 21:58:00,67.3,56.3,30.25,SSE,157,1.6,3.8,68,0.00,,,0.00,WeatherCatV1.20B785,2013-07-18 04:58:00,
2013-07-17 22:03:00,67.1,56.2,30.25,WSW,247,0.0,0.0,68,0.00,,,0.00,WeatherCatV1.20B785,2013-07-18 05:03:00,
2013-07-17 22:08:00,66.7,56.2,30.25,SSE,157,0.0,3.6,69,0.00,,,0.00,WeatherCatV1.20B785,2013-07-18 05:08:00,
2013-07-17 22:13:00,66.6,56.0,30.25,SSE,157,0.0,3.1,69,0.00,,,0.00,WeatherCatV1.20B785,2013-07-18 05:13:00,
2013-07-17 22:18:00,66.4,56.3,30.26,SSE,157,0.0,0.0,70,0.00,,,0.00,WeatherCatV1.20B785,2013-07-18 05:18:00,
2013-07-17 22:23:00,66.2,56.0,30.26,South,180,3.4,3.4,70,0.00,,,0.00,WeatherCatV1.20B785,2013-07-18 05:23:00,
2013-07-17 22:28:00,66.0,56.0,30.26,SSE,157,1.3,2.2,70,0.00,,,0.00,WeatherCatV1.20B785,2013-07-18 05:28:00,
2013-07-17 22:33:00,66.0,56.3,30.26,South,180,3.8,3.8,71,0.00,,,0.00,WeatherCatV1.20B785,2013-07-18 05:33:00,
2013-07-17 22:38:00,65.7,56.2,30.26,SSE,157,2.5,2.5,71,0.00,,,0.00,WeatherCatV1.20B785,2013-07-18 05:38:00,
2013-07-17 22:43:00,65.3,55.7,30.26,South,180,1.3,2.0,71,0.00,,,0.00,WeatherCatV1.20B785,2013-07-18 05:43:00,
2013-07-17 22:48:00,65.1,55.5,30.27,SSE,157,1.8,1.8,71,0.00,,,0.00,WeatherCatV1.20B785,2013-07-18 05:48:00,
2013-07-17 22:52:00,64.9,55.3,30.27,SSE,157,2.2,2.2,71,0.00,,,0.00,WeatherCatV1.20B785,2013-07-18 05:52:00,
2013-07-17 22:57:00,64.6,55.4,30.27,SSE,157,4.5,4.5,72,0.00,,,0.00,WeatherCatV1.20B785,2013-07-18 05:57:00,
2013-07-17 23:02:00,64.6,55.4,30.27,ESE,112,1.1,1.1,72,0.00,,,0.00,WeatherCatV1.20B785,2013-07-18 06:02:00,
2013-07-17 23:07:00,64.2,55.4,30.27,SSE,157,0.0,0.9,73,0.00,,,0.00,WeatherCatV1.20B785,2013-07-18 06:07:00,
2013-07-17 23:12:00,64.2,55.4,30.28,SSE,157,2.2,3.1,73,0.00,,,0.00,WeatherCatV1.20B785,2013-07-18 06:12:00,
2013-07-17 23:17:00,64.0,55.2,30.28,South,180,3.6,3.6,73,0.00,,,0.00,WeatherCatV1.20B785,2013-07-18 06:17:00,
2013-07-17 23:22:00,63.7,54.9,30.29,SSE,157,2.7,2.7,73,0.00,,,0.00,WeatherCatV1.20B785,2013-07-18 06:22:00,
2013-07-17 23:27:00,63.7,54.9,30.29,South,180,5.1,5.1,73,0.00,,,0.00,WeatherCatV1.20B785,2013-07-18 06:27:00,
2013-07-17 23:33:00,63.3,54.9,30.28,South,180,1.6,1.6,74,0.00,,,0.00,WeatherCatV1.20B785,2013-07-18 06:33:00,
2013-07-17 23:38:00,63.3,54.9,30.29,SE,135,5.1,5.1,74,0.00,,,0.00,WeatherCatV1.20B785,2013-07-18 06:38:00,
2013-07-17 23:43:00,63.1,54.7,30.28,South,180,4.0,4.0,74,0.00,,,0.00,WeatherCatV1.20B785,2013-07-18 06:43:00,
2013-07-17 23:48:00,63.1,54.7,30.28,SSE,157,0.7,0.7,74,0.00,,,0.00,WeatherCatV1.20B785,2013-07-18 06:48:00,
2013-07-17 23:53:00,63.0,54.9,30.28,SSE,157,5.6,5.6,75,0.00,,,0.00,WeatherCatV1.20B785,2013-07-18 06:53:00,
2013-07-17 23:58:00,62.8,54.7,30.29,SSE,157,5.6,5.6,75,0.00,,,0.00,WeatherCatV1.20B785,2013-07-18 06:58:00,